createdAt,value
2017-01-02T00:00:37.920Z,998.3
2017-01-02T00:01:37.945Z,998.3
2017-01-02T00:02:37.973Z,998.27
2017-01-02T00:03:37.998Z,998.23
2017-01-02T00:04:38.026Z,998.19
2017-01-02T00:05:38.051Z,998.15
2017-01-02T00:06:38.080Z,998.13
2017-01-02T00:07:38.104Z,998.12
2017-01-02T00:08:38.133Z,998.08
2017-01-02T00:09:38.158Z,998.04
2017-01-02T00:10:38.187Z,998.04
2017-01-02T00:11:38.211Z,998
2017-01-02T00:12:38.240Z,998.01
2017-01-02T00:13:38.261Z,998.03
2017-01-02T00:14:38.293Z,998.08
2017-01-02T00:15:38.320Z,998.11
2017-01-02T00:16:38.346Z,998.11
2017-01-02T00:17:38.367Z,998.11
2017-01-02T00:18:38.396Z,998.15
2017-01-02T00:19:38.424Z,998.14
2017-01-02T00:20:38.450Z,998.12
2017-01-02T00:21:38.479Z,998.21
2017-01-02T00:22:38.503Z,998.19
2017-01-02T00:23:38.536Z,998.17
2017-01-02T00:24:38.556Z,998.16
2017-01-02T00:25:38.585Z,998.14
2017-01-02T00:26:38.610Z,998.14
2017-01-02T00:27:38.639Z,998.11
2017-01-02T00:28:38.663Z,998.11
2017-01-02T00:29:38.692Z,998.11
2017-01-02T00:30:38.717Z,998.12
2017-01-02T00:31:38.745Z,998.09
2017-01-02T00:32:38.770Z,998.07
2017-01-02T00:33:38.799Z,998.07
2017-01-02T00:34:38.819Z,998.06
2017-01-02T00:35:38.848Z,998.08
2017-01-02T00:36:38.877Z,998.12
2017-01-02T00:37:38.902Z,998.09
2017-01-02T00:38:38.930Z,998.06
2017-01-02T00:39:38.954Z,998.06
2017-01-02T00:40:38.983Z,998.07
2017-01-02T00:41:39.008Z,998.05
2017-01-02T00:42:39.037Z,998
2017-01-02T00:43:39.061Z,998
2017-01-02T00:44:39.086Z,997.96
2017-01-02T00:45:39.115Z,997.95
2017-01-02T00:46:39.144Z,997.92
2017-01-02T00:47:39.169Z,997.96
2017-01-02T00:48:39.188Z,997.93
2017-01-02T00:49:39.221Z,997.92
2017-01-02T00:50:39.246Z,997.96
2017-01-02T00:51:39.275Z,997.92
2017-01-02T00:52:39.300Z,997.9
2017-01-02T00:53:39.329Z,997.91
2017-01-02T00:54:39.350Z,997.9
2017-01-02T00:55:39.378Z,997.95
2017-01-02T00:56:39.407Z,997.92
2017-01-02T00:57:39.431Z,997.9
2017-01-02T00:58:39.460Z,997.9
2017-01-02T00:59:39.484Z,997.91
2017-01-02T01:00:39.513Z,997.96
2017-01-02T01:01:39.539Z,997.93
2017-01-02T01:02:39.567Z,998
2017-01-02T01:03:39.591Z,998
2017-01-02T01:04:39.620Z,998.04
2017-01-02T01:05:39.645Z,997.97
2017-01-02T01:06:39.665Z,998
2017-01-02T01:07:39.698Z,997.99
2017-01-02T01:08:39.727Z,997.99
2017-01-02T01:09:39.751Z,998
2017-01-02T01:10:39.772Z,997.96
2017-01-02T01:11:39.805Z,997.95
2017-01-02T01:12:39.830Z,998
2017-01-02T01:13:39.854Z,997.99
2017-01-02T01:14:39.883Z,998
2017-01-02T01:15:39.908Z,997.97
2017-01-02T01:16:39.936Z,998.01
2017-01-02T01:17:39.961Z,998.01
2017-01-02T01:18:39.989Z,998.01
2017-01-02T01:19:40.014Z,998.06
2017-01-02T01:20:40.042Z,998.04
2017-01-02T01:21:40.066Z,998.07
2017-01-02T01:22:40.098Z,998.1
2017-01-02T01:23:40.121Z,998.11
2017-01-02T01:24:40.146Z,998.12
2017-01-02T01:25:40.174Z,998.11
2017-01-02T01:26:40.199Z,998.09
2017-01-02T01:27:40.228Z,998.09
2017-01-02T01:28:40.253Z,998.12
2017-01-02T01:29:40.282Z,998.11
2017-01-02T01:30:40.311Z,998.1
2017-01-02T01:31:40.335Z,998.09
2017-01-02T01:32:40.355Z,998.11
2017-01-02T01:33:40.388Z,998.1
2017-01-02T01:34:40.413Z,998.12
2017-01-02T01:35:40.437Z,998.04
2017-01-02T01:36:40.466Z,998.08
2017-01-02T01:37:40.493Z,998.08
2017-01-02T01:38:40.520Z,998.06
2017-01-02T01:39:40.545Z,998.13
2017-01-02T01:40:40.573Z,998.03
2017-01-02T01:41:40.598Z,998.1
2017-01-02T01:42:40.623Z,998.08
2017-01-02T01:43:40.652Z,998.14
2017-01-02T01:44:40.676Z,998.1
2017-01-02T01:45:40.705Z,998.14
2017-01-02T01:46:40.729Z,998.15
2017-01-02T01:47:40.758Z,998.17
2017-01-02T01:48:40.783Z,998.17
2017-01-02T01:49:40.811Z,998.13
2017-01-02T01:50:40.836Z,998.13
2017-01-02T01:51:40.861Z,998.08
2017-01-02T01:52:40.889Z,998.09
2017-01-02T01:53:40.912Z,998.09
2017-01-02T01:54:40.943Z,998.1
2017-01-02T01:55:40.968Z,998.07
2017-01-02T01:56:40.997Z,998.06
2017-01-02T01:57:41.022Z,998.07
2017-01-02T01:58:41.046Z,998.04
2017-01-02T01:59:41.075Z,998
2017-01-02T02:00:41.100Z,998.05
2017-01-02T02:01:41.129Z,998.05
2017-01-02T02:02:41.153Z,998.06
2017-01-02T02:03:41.182Z,998.06
2017-01-02T02:04:41.202Z,998.1
2017-01-02T02:05:41.232Z,998.08
2017-01-02T02:06:41.261Z,998.05
2017-01-02T02:07:41.285Z,998.1
2017-01-02T02:08:41.314Z,998.08
2017-01-02T02:09:41.339Z,998.08
2017-01-02T02:10:41.363Z,998.1
2017-01-02T02:11:41.392Z,998.12
2017-01-02T02:12:41.417Z,998.13
2017-01-02T02:13:41.445Z,998.08
2017-01-02T02:14:41.475Z,998.08
2017-01-02T02:15:41.494Z,998.08
2017-01-02T02:16:41.523Z,998.07
2017-01-02T02:17:41.548Z,998.09
2017-01-02T02:18:41.577Z,998.11
2017-01-02T02:19:41.602Z,998.14
2017-01-02T02:20:41.627Z,998.12
2017-01-02T02:21:41.655Z,998.1
2017-01-02T02:22:41.684Z,998.09
2017-01-02T02:23:41.708Z,998.04
2017-01-02T02:24:41.732Z,998.07
2017-01-02T02:25:41.762Z,998.05
2017-01-02T02:26:41.786Z,998.06
2017-01-02T02:27:41.815Z,998.04
2017-01-02T02:28:41.840Z,998.05
2017-01-02T02:29:41.869Z,998.03
2017-01-02T02:30:41.894Z,998.04
2017-01-02T02:31:41.918Z,998
2017-01-02T02:32:41.948Z,998.01
2017-01-02T02:33:41.973Z,998.01
2017-01-02T02:34:41.996Z,998.03
2017-01-02T02:35:42.025Z,998
2017-01-02T02:36:42.046Z,998.01
2017-01-02T02:37:42.080Z,998.01
2017-01-02T02:38:42.104Z,997.99
2017-01-02T02:39:42.132Z,997.98
2017-01-02T02:40:42.157Z,997.96
2017-01-02T02:41:42.182Z,997.96
2017-01-02T02:42:42.210Z,997.97
2017-01-02T02:43:42.236Z,997.95
2017-01-02T02:44:42.264Z,997.99
2017-01-02T02:45:42.289Z,997.97
2017-01-02T02:46:42.313Z,997.95
2017-01-02T02:47:42.342Z,997.96
2017-01-02T02:48:42.369Z,997.96
2017-01-02T02:49:42.398Z,997.92
2017-01-02T02:50:42.420Z,997.93
2017-01-02T02:51:42.449Z,997.89
2017-01-02T02:52:42.470Z,997.91
2017-01-02T02:53:42.499Z,997.92
2017-01-02T02:54:42.527Z,997.88
2017-01-02T02:55:42.552Z,997.87
2017-01-02T02:56:42.580Z,997.9
2017-01-02T02:57:42.601Z,997.87
2017-01-02T02:58:42.629Z,997.87
2017-01-02T02:59:42.658Z,997.87
2017-01-02T03:00:42.683Z,997.96
2017-01-02T03:01:42.712Z,997.96
2017-01-02T03:02:42.737Z,997.93
2017-01-02T03:03:42.765Z,997.93
2017-01-02T03:04:42.791Z,997.95
2017-01-02T03:05:42.815Z,997.93
2017-01-02T03:06:42.844Z,997.91
2017-01-02T03:07:42.869Z,997.96
2017-01-02T03:08:42.897Z,997.93
2017-01-02T03:09:42.922Z,997.91
2017-01-02T03:10:42.947Z,997.97
2017-01-02T03:11:42.975Z,997.94
2017-01-02T03:12:43.004Z,997.96
2017-01-02T03:13:43.028Z,997.95
2017-01-02T03:14:43.049Z,997.92
2017-01-02T03:15:43.082Z,997.98
2017-01-02T03:16:43.106Z,998
2017-01-02T03:17:43.132Z,998.04
2017-01-02T03:18:43.160Z,998.03
2017-01-02T03:19:43.185Z,998.05
2017-01-02T03:20:43.214Z,997.98
2017-01-02T03:21:43.242Z,997.95
2017-01-02T03:22:43.263Z,997.92
2017-01-02T03:23:43.292Z,997.91
2017-01-02T03:24:43.317Z,997.91
2017-01-02T03:25:43.346Z,997.87
2017-01-02T03:26:43.370Z,997.87
2017-01-02T03:27:43.395Z,997.83
2017-01-02T03:28:43.424Z,997.81
2017-01-02T03:29:43.451Z,997.83
2017-01-02T03:30:43.476Z,997.8
2017-01-02T03:31:43.501Z,997.84
2017-01-02T03:32:43.527Z,997.8
2017-01-02T03:33:43.555Z,997.79
2017-01-02T03:34:43.580Z,997.76
2017-01-02T03:35:43.609Z,997.76
2017-01-02T03:36:43.634Z,997.72
2017-01-02T03:37:43.658Z,997.75
2017-01-02T03:38:43.687Z,997.81
2017-01-02T03:39:43.711Z,997.8
2017-01-02T03:40:43.740Z,997.77
2017-01-02T03:41:43.761Z,997.79
2017-01-02T03:42:43.794Z,997.78
2017-01-02T03:43:43.814Z,997.83
2017-01-02T03:44:43.844Z,997.83
2017-01-02T03:45:43.871Z,997.87
2017-01-02T03:46:43.896Z,997.87
2017-01-02T03:47:43.921Z,997.82
2017-01-02T03:48:43.949Z,997.86
2017-01-02T03:49:43.975Z,997.88
2017-01-02T03:50:43.999Z,997.86
2017-01-02T03:51:44.028Z,997.87
2017-01-02T03:52:44.053Z,997.85
2017-01-02T03:53:44.081Z,997.82
2017-01-02T03:54:44.105Z,997.86
2017-01-02T03:55:44.136Z,997.85
2017-01-02T03:56:44.159Z,997.87
2017-01-02T03:57:44.184Z,997.82
2017-01-02T03:58:44.213Z,997.81
2017-01-02T03:59:44.237Z,997.78
2017-01-02T04:00:44.266Z,997.82
2017-01-02T04:01:44.291Z,997.81
2017-01-02T04:02:44.315Z,997.79
2017-01-02T04:03:44.345Z,997.83
2017-01-02T04:04:44.372Z,997.79
2017-01-02T04:05:44.393Z,997.82
2017-01-02T04:06:44.422Z,997.81
2017-01-02T04:07:44.451Z,997.81
2017-01-02T04:08:44.475Z,997.79
2017-01-02T04:09:44.502Z,997.74
2017-01-02T04:10:44.524Z,997.75
2017-01-02T04:11:44.558Z,997.73
2017-01-02T04:12:44.578Z,997.67
2017-01-02T04:13:44.603Z,997.66
2017-01-02T04:14:44.631Z,997.63
2017-01-02T04:15:44.657Z,997.66
2017-01-02T04:16:44.685Z,997.7
2017-01-02T04:17:44.705Z,997.72
2017-01-02T04:18:44.734Z,997.71
2017-01-02T04:19:44.763Z,997.73
2017-01-02T04:20:44.787Z,997.65
2017-01-02T04:21:44.815Z,997.64
2017-01-02T04:22:44.841Z,997.67
2017-01-02T04:23:44.865Z,997.68
2017-01-02T04:24:44.895Z,997.65
2017-01-02T04:25:44.923Z,997.64
2017-01-02T04:26:44.945Z,997.65
2017-01-02T04:27:44.972Z,997.61
2017-01-02T04:28:44.993Z,997.59
2017-01-02T04:29:45.026Z,997.53
2017-01-02T04:30:45.050Z,997.53
2017-01-02T04:31:45.086Z,997.58
2017-01-02T04:32:45.104Z,997.58
2017-01-02T04:33:45.124Z,997.6
2017-01-02T04:34:45.153Z,997.61
2017-01-02T04:35:45.182Z,997.62
2017-01-02T04:36:45.206Z,997.64
2017-01-02T04:37:45.235Z,997.63
2017-01-02T04:38:45.257Z,997.7
2017-01-02T04:39:45.285Z,997.73
2017-01-02T04:40:45.314Z,997.81
2017-01-02T04:41:45.337Z,997.85
2017-01-02T04:42:45.362Z,997.9
2017-01-02T04:43:45.387Z,997.89
2017-01-02T04:44:45.412Z,997.86
2017-01-02T04:45:45.445Z,997.93
2017-01-02T04:46:45.468Z,997.91
2017-01-02T04:47:45.496Z,997.92
2017-01-02T04:48:45.523Z,997.93
2017-01-02T04:49:45.548Z,997.92
2017-01-02T04:50:45.572Z,997.96
2017-01-02T04:51:45.601Z,997.9
2017-01-02T04:52:45.625Z,997.81
2017-01-02T04:53:45.650Z,997.89
2017-01-02T04:54:45.679Z,997.89
2017-01-02T04:55:45.703Z,997.93
2017-01-02T04:56:45.732Z,997.88
2017-01-02T04:57:45.757Z,997.86
2017-01-02T04:58:45.783Z,997.87
2017-01-02T04:59:45.811Z,997.88
2017-01-02T05:00:45.834Z,997.87
2017-01-02T05:01:45.860Z,997.84
2017-01-02T05:02:45.898Z,997.81
2017-01-02T05:03:45.912Z,997.82
2017-01-02T05:04:45.936Z,997.82
2017-01-02T05:05:45.967Z,997.76
2017-01-02T05:06:45.990Z,997.76
2017-01-02T05:07:46.015Z,997.8
2017-01-02T05:08:46.044Z,997.85
2017-01-02T05:09:46.065Z,997.83
2017-01-02T05:10:46.099Z,997.86
2017-01-02T05:11:46.122Z,997.83
2017-01-02T05:12:46.146Z,997.77
2017-01-02T05:13:46.176Z,997.84
2017-01-02T05:14:46.195Z,997.9
2017-01-02T05:15:46.223Z,997.86
2017-01-02T05:16:46.249Z,997.85
2017-01-02T05:17:46.278Z,997.94
2017-01-02T05:18:46.302Z,997.96
2017-01-02T05:19:46.331Z,997.94
2017-01-02T05:20:46.356Z,997.95
2017-01-02T05:21:46.385Z,997.94
2017-01-02T05:22:46.409Z,997.89
2017-01-02T05:23:46.439Z,997.85
2017-01-02T05:24:46.463Z,997.77
2017-01-02T05:25:46.484Z,997.77
2017-01-02T05:26:46.515Z,997.75
2017-01-02T05:27:46.537Z,997.76
2017-01-02T05:28:46.566Z,997.74
2017-01-02T05:29:46.590Z,997.66
2017-01-02T05:30:46.619Z,997.68
2017-01-02T05:31:46.644Z,997.71
2017-01-02T05:32:46.668Z,997.74
2017-01-02T05:33:46.697Z,997.71
2017-01-02T05:34:46.718Z,997.71
2017-01-02T05:35:46.747Z,997.74
2017-01-02T05:36:46.772Z,997.75
2017-01-02T05:37:46.800Z,997.78
2017-01-02T05:38:46.821Z,997.81
2017-01-02T05:39:46.853Z,997.84
2017-01-02T05:40:46.878Z,997.82
2017-01-02T05:41:46.908Z,997.88
2017-01-02T05:42:46.932Z,997.85
2017-01-02T05:43:46.956Z,997.87
2017-01-02T05:44:46.981Z,997.89
2017-01-02T05:45:47.010Z,997.89
2017-01-02T05:46:47.034Z,997.87
2017-01-02T05:47:47.059Z,997.91
2017-01-02T05:48:47.088Z,997.89
2017-01-02T05:49:47.113Z,997.92
2017-01-02T05:50:47.142Z,997.88
2017-01-02T05:51:47.166Z,997.88
2017-01-02T05:52:47.191Z,997.91
2017-01-02T05:53:47.220Z,997.92
2017-01-02T05:54:47.244Z,997.93
2017-01-02T05:55:47.269Z,997.95
2017-01-02T05:56:47.302Z,997.96
2017-01-02T05:57:47.322Z,997.98
2017-01-02T05:58:47.348Z,997.98
2017-01-02T05:59:47.372Z,998
2017-01-02T06:00:47.401Z,997.99
2017-01-02T06:01:47.429Z,998.01
2017-01-02T06:02:47.455Z,997.95
2017-01-02T06:03:47.479Z,998.02
2017-01-02T06:04:47.507Z,998.01
2017-01-02T06:05:47.532Z,998.05
2017-01-02T06:06:47.557Z,998.04
2017-01-02T06:07:47.585Z,998.1
2017-01-02T06:08:47.609Z,998.11
2017-01-02T06:09:47.636Z,998.1
2017-01-02T06:10:47.664Z,998.16
2017-01-02T06:11:47.684Z,998.17
2017-01-02T06:12:47.718Z,998.21
2017-01-02T06:13:47.742Z,998.18
2017-01-02T06:14:47.766Z,998.25
2017-01-02T06:15:47.795Z,998.23
2017-01-02T06:16:47.820Z,998.23
2017-01-02T06:17:47.848Z,998.25
2017-01-02T06:18:47.874Z,998.2
2017-01-02T06:19:47.901Z,998.21
2017-01-02T06:20:47.927Z,998.17
2017-01-02T06:21:47.951Z,998.22
2017-01-02T06:22:47.980Z,998.22
2017-01-02T06:23:48.001Z,998.2
2017-01-02T06:24:48.034Z,998.17
2017-01-02T06:25:48.058Z,998.2
2017-01-02T06:26:48.083Z,998.21
2017-01-02T06:27:48.112Z,998.17
2017-01-02T06:28:48.137Z,998.22
2017-01-02T06:29:48.166Z,998.19
2017-01-02T06:30:48.190Z,998.19
2017-01-02T06:31:48.219Z,998.21
2017-01-02T06:32:48.243Z,998.22
2017-01-02T06:33:48.264Z,998.17
2017-01-02T06:34:48.301Z,998.21
2017-01-02T06:35:48.321Z,998.21
2017-01-02T06:36:48.350Z,998.26
2017-01-02T06:37:48.375Z,998.25
2017-01-02T06:38:48.400Z,998.24
2017-01-02T06:39:48.429Z,998.2
2017-01-02T06:40:48.453Z,998.27
2017-01-02T06:41:48.481Z,998.22
2017-01-02T06:42:48.506Z,998.17
2017-01-02T06:43:48.531Z,998.21
2017-01-02T06:44:48.560Z,998.19
2017-01-02T06:45:48.585Z,998.18
2017-01-02T06:46:48.613Z,998.2
2017-01-02T06:47:48.638Z,998.24
2017-01-02T06:48:48.667Z,998.24
2017-01-02T06:49:48.687Z,998.2
2017-01-02T06:50:48.720Z,998.3
2017-01-02T06:51:48.744Z,998.29
2017-01-02T06:52:48.773Z,998.3
2017-01-02T06:53:48.798Z,998.34
2017-01-02T06:54:48.823Z,998.33
2017-01-02T06:55:48.852Z,998.36
2017-01-02T06:56:48.877Z,998.38
2017-01-02T06:57:48.905Z,998.36
2017-01-02T06:58:48.926Z,998.38
2017-01-02T06:59:48.963Z,998.4
2017-01-02T07:00:48.983Z,998.41
2017-01-02T07:01:49.012Z,998.41
2017-01-02T07:02:49.038Z,998.4
2017-01-02T07:03:49.066Z,998.41
2017-01-02T07:04:49.091Z,998.38
2017-01-02T07:05:49.115Z,998.4
2017-01-02T07:06:49.144Z,998.36
2017-01-02T07:07:49.168Z,998.4
2017-01-02T07:08:49.193Z,998.46
2017-01-02T07:09:49.221Z,998.49
2017-01-02T07:10:49.251Z,998.5
2017-01-02T07:11:49.276Z,998.52
2017-01-02T07:12:49.304Z,998.5
2017-01-02T07:13:49.329Z,998.48
2017-01-02T07:14:49.358Z,998.54
2017-01-02T07:15:49.383Z,998.53
2017-01-02T07:16:49.408Z,998.61
2017-01-02T07:17:49.432Z,998.62
2017-01-02T07:18:49.465Z,998.68
2017-01-02T07:19:49.485Z,998.7
2017-01-02T07:20:49.515Z,998.7
2017-01-02T07:21:49.543Z,998.66
2017-01-02T07:22:49.568Z,998.73
2017-01-02T07:23:49.597Z,998.75
2017-01-02T07:24:49.621Z,998.75
2017-01-02T07:25:49.650Z,998.73
2017-01-02T07:26:49.674Z,998.75
2017-01-02T07:27:49.703Z,998.76
2017-01-02T07:28:49.728Z,998.75
2017-01-02T07:29:49.755Z,998.74
2017-01-02T07:30:49.782Z,998.7
2017-01-02T07:31:49.809Z,998.7
2017-01-02T07:32:49.835Z,998.71
2017-01-02T07:33:49.865Z,998.7
2017-01-02T07:34:49.888Z,998.73
2017-01-02T07:35:49.913Z,998.73
2017-01-02T07:36:49.940Z,998.78
2017-01-02T07:37:49.967Z,998.78
2017-01-02T07:38:49.996Z,998.76
2017-01-02T07:39:50.020Z,998.8
2017-01-02T07:40:50.044Z,998.75
2017-01-02T07:41:50.073Z,998.73
2017-01-02T07:42:50.103Z,998.72
2017-01-02T07:43:50.128Z,998.66
2017-01-02T07:44:50.151Z,998.67
2017-01-02T07:45:50.176Z,998.69
2017-01-02T07:46:50.210Z,998.71
2017-01-02T07:47:50.235Z,998.72
2017-01-02T07:48:50.259Z,998.72
2017-01-02T07:49:50.288Z,998.74
2017-01-02T07:50:50.313Z,998.72
2017-01-02T07:51:50.338Z,998.69
2017-01-02T07:52:50.374Z,998.75
2017-01-02T07:53:50.395Z,998.76
2017-01-02T07:54:50.423Z,998.71
2017-01-02T07:55:50.444Z,998.78
2017-01-02T07:56:50.473Z,998.73
2017-01-02T07:57:50.502Z,998.74
2017-01-02T07:58:50.526Z,998.79
2017-01-02T07:59:50.555Z,998.71
2017-01-02T08:00:50.579Z,998.68
2017-01-02T08:01:50.604Z,998.66
2017-01-02T08:02:50.633Z,998.6
2017-01-02T08:03:50.663Z,998.65
2017-01-02T08:04:50.687Z,998.63
2017-01-02T08:05:50.717Z,998.66
2017-01-02T08:06:50.740Z,998.64
2017-01-02T08:07:50.765Z,998.67
2017-01-02T08:08:50.794Z,998.7
2017-01-02T08:09:50.819Z,998.65
2017-01-02T08:10:50.847Z,998.66
2017-01-02T08:11:50.874Z,998.69
2017-01-02T08:12:50.902Z,998.69
2017-01-02T08:13:50.927Z,998.75
2017-01-02T08:14:50.955Z,998.73
2017-01-02T08:15:50.979Z,998.78
2017-01-02T08:16:51.007Z,998.77
2017-01-02T08:17:51.032Z,998.78
2017-01-02T08:18:51.056Z,998.74
2017-01-02T08:19:51.086Z,998.8
2017-01-02T08:20:51.111Z,998.8
2017-01-02T08:21:51.140Z,998.8
2017-01-02T08:22:51.164Z,998.83
2017-01-02T08:23:51.193Z,998.81
2017-01-02T08:24:51.217Z,998.79
2017-01-02T08:25:51.242Z,998.87
2017-01-02T08:26:51.271Z,998.87
2017-01-02T08:27:51.297Z,998.88
2017-01-02T08:28:51.325Z,998.86
2017-01-02T08:29:51.348Z,998.84
2017-01-02T08:30:51.382Z,998.83
2017-01-02T08:31:51.403Z,998.83
2017-01-02T08:32:51.427Z,998.84
2017-01-02T08:33:51.456Z,998.82
2017-01-02T08:34:51.480Z,998.74
2017-01-02T08:35:51.510Z,998.74
2017-01-02T08:36:51.534Z,998.79
2017-01-02T08:37:51.563Z,998.79
2017-01-02T08:38:51.584Z,998.86
2017-01-02T08:39:51.613Z,998.86
2017-01-02T08:40:51.641Z,998.9
2017-01-02T08:41:51.666Z,998.91
2017-01-02T08:42:51.695Z,998.94
2017-01-02T08:43:51.720Z,998.94
2017-01-02T08:44:51.748Z,999.01
2017-01-02T08:45:51.773Z,998.98
2017-01-02T08:46:51.798Z,998.99
2017-01-02T08:47:51.827Z,999.01
2017-01-02T08:48:51.851Z,999.03
2017-01-02T08:49:51.880Z,999.05
2017-01-02T08:50:51.904Z,999.08
2017-01-02T08:51:51.933Z,999.08
2017-01-02T08:52:51.958Z,999.07
2017-01-02T08:53:51.986Z,999.09
2017-01-02T08:54:52.011Z,999.07
2017-01-02T08:55:52.036Z,999.12
2017-01-02T08:56:52.064Z,999.15
2017-01-02T08:57:52.089Z,999.13
2017-01-02T08:58:52.113Z,999.18
2017-01-02T08:59:52.139Z,999.19
2017-01-02T09:00:52.168Z,999.2
2017-01-02T09:01:52.197Z,999.22
2017-01-02T09:02:52.221Z,999.16
2017-01-02T09:03:52.250Z,999.18
2017-01-02T09:04:52.276Z,999.2
2017-01-02T09:05:52.299Z,999.24
2017-01-02T09:06:52.328Z,999.23
2017-01-02T09:07:52.353Z,999.26
2017-01-02T09:08:52.377Z,999.25
2017-01-02T09:09:52.407Z,999.29
2017-01-02T09:10:52.427Z,999.3
2017-01-02T09:11:52.460Z,999.33
2017-01-02T09:12:52.488Z,999.31
2017-01-02T09:13:52.513Z,999.31
2017-01-02T09:14:52.538Z,999.33
2017-01-02T09:15:52.567Z,999.33
2017-01-02T09:16:52.591Z,999.35
2017-01-02T09:17:52.616Z,999.41
2017-01-02T09:18:52.645Z,999.36
2017-01-02T09:19:52.670Z,999.37
2017-01-02T09:20:52.694Z,999.41
2017-01-02T09:21:52.723Z,999.44
2017-01-02T09:22:52.748Z,999.38
2017-01-02T09:23:52.783Z,999.41
2017-01-02T09:24:52.801Z,999.42
2017-01-02T09:25:52.832Z,999.42
2017-01-02T09:26:52.855Z,999.45
2017-01-02T09:27:52.884Z,999.51
2017-01-02T09:28:52.908Z,999.55
2017-01-02T09:29:52.933Z,999.54
2017-01-02T09:30:52.961Z,999.53
2017-01-02T09:31:52.987Z,999.53
2017-01-02T09:32:53.015Z,999.55
2017-01-02T09:33:53.040Z,999.55
2017-01-02T09:34:53.065Z,999.56
2017-01-02T09:35:53.093Z,999.51
2017-01-02T09:36:53.118Z,999.55
2017-01-02T09:37:53.142Z,999.55
2017-01-02T09:38:53.171Z,999.56
2017-01-02T09:39:53.196Z,999.55
2017-01-02T09:40:53.225Z,999.49
2017-01-02T09:41:53.250Z,999.54
2017-01-02T09:42:53.271Z,999.52
2017-01-02T09:43:53.305Z,999.54
2017-01-02T09:44:53.332Z,999.62
2017-01-02T09:45:53.363Z,999.56
2017-01-02T09:46:53.385Z,999.63
2017-01-02T09:47:53.406Z,999.66
2017-01-02T09:48:53.428Z,999.68
2017-01-02T09:49:53.455Z,999.71
2017-01-02T09:50:53.485Z,999.71
2017-01-02T09:51:53.515Z,999.73
2017-01-02T09:52:53.538Z,999.77
2017-01-02T09:53:53.559Z,999.76
2017-01-02T09:54:53.591Z,999.75
2017-01-02T09:55:53.616Z,999.79
2017-01-02T09:56:53.645Z,999.76
2017-01-02T09:57:53.670Z,999.76
2017-01-02T09:58:53.689Z,999.77
2017-01-02T09:59:53.730Z,999.78
2017-01-02T10:00:53.747Z,999.8
2017-01-02T10:01:53.776Z,999.81
2017-01-02T10:02:53.800Z,999.81
2017-01-02T10:03:53.822Z,999.8
2017-01-02T10:04:53.855Z,999.81
2017-01-02T10:05:53.879Z,999.8
2017-01-02T10:06:53.908Z,999.84
2017-01-02T10:07:53.933Z,999.84
2017-01-02T10:08:53.957Z,999.82
2017-01-02T10:09:53.991Z,999.87
2017-01-02T10:10:54.011Z,999.86
2017-01-02T10:11:54.035Z,999.84
2017-01-02T10:12:54.064Z,999.86
2017-01-02T10:13:54.090Z,999.87
2017-01-02T10:14:54.114Z,999.89
2017-01-02T10:15:54.143Z,999.87
2017-01-02T10:16:54.167Z,999.87
2017-01-02T10:17:54.195Z,999.89
2017-01-02T10:18:54.220Z,999.9
2017-01-02T10:19:54.245Z,999.86
2017-01-02T10:20:54.274Z,999.89
2017-01-02T10:21:54.299Z,999.89
2017-01-02T10:22:54.330Z,999.86
2017-01-02T10:23:54.351Z,999.88
2017-01-02T10:24:54.377Z,999.91
2017-01-02T10:25:54.406Z,999.84
2017-01-02T10:26:54.431Z,999.82
2017-01-02T10:27:54.459Z,999.81
2017-01-02T10:28:54.484Z,999.83
2017-01-02T10:29:54.509Z,999.85
2017-01-02T10:30:54.538Z,999.86
2017-01-02T10:31:54.562Z,999.84
2017-01-02T10:32:54.587Z,999.81
2017-01-02T10:33:54.636Z,999.81
2017-01-02T10:34:54.641Z,999.86
2017-01-02T10:35:54.665Z,999.81
2017-01-02T10:36:54.694Z,999.79
2017-01-02T10:37:54.720Z,999.77
2017-01-02T10:38:54.747Z,999.8
2017-01-02T10:39:54.772Z,999.86
2017-01-02T10:40:54.796Z,999.78
2017-01-02T10:41:54.825Z,999.79
2017-01-02T10:42:54.850Z,999.77
2017-01-02T10:43:54.879Z,999.76
2017-01-02T10:44:54.903Z,999.75
2017-01-02T10:45:54.933Z,999.79
2017-01-02T10:46:54.957Z,999.8
2017-01-02T10:47:54.981Z,999.81
2017-01-02T10:48:55.010Z,999.83
2017-01-02T10:49:55.039Z,999.82
2017-01-02T10:50:55.060Z,999.86
2017-01-02T10:51:55.089Z,999.85
2017-01-02T10:52:55.114Z,999.85
2017-01-02T10:53:55.138Z,999.86
2017-01-02T10:54:55.168Z,999.86
2017-01-02T10:55:55.191Z,999.87
2017-01-02T10:56:55.220Z,999.83
2017-01-02T10:57:55.245Z,999.89
2017-01-02T10:58:55.270Z,999.92
2017-01-02T10:59:55.304Z,999.9
2017-01-02T11:00:55.323Z,999.92
2017-01-02T11:01:55.360Z,999.88
2017-01-02T11:02:55.376Z,999.96
2017-01-02T11:03:55.405Z,999.93
2017-01-02T11:04:55.430Z,999.95
2017-01-02T11:05:55.455Z,999.86
2017-01-02T11:06:55.483Z,999.87
2017-01-02T11:07:55.508Z,999.87
2017-01-02T11:08:55.533Z,999.82
2017-01-02T11:09:55.561Z,999.84
2017-01-02T11:10:55.586Z,999.82
2017-01-02T11:11:55.615Z,999.82
2017-01-02T11:12:55.639Z,999.81
2017-01-02T11:13:55.669Z,999.77
2017-01-02T11:14:55.694Z,999.81
2017-01-02T11:15:55.718Z,999.74
2017-01-02T11:16:55.746Z,999.81
2017-01-02T11:17:55.772Z,999.83
2017-01-02T11:18:55.796Z,999.86
2017-01-02T11:19:55.824Z,999.87
2017-01-02T11:20:55.850Z,999.89
2017-01-02T11:21:55.878Z,999.87
2017-01-02T11:22:55.903Z,999.82
2017-01-02T11:23:55.928Z,999.88
2017-01-02T11:24:55.957Z,999.78
2017-01-02T11:25:55.981Z,999.83
2017-01-02T11:26:56.010Z,999.87
2017-01-02T11:27:56.035Z,999.89
2017-01-02T11:28:56.060Z,999.84
2017-01-02T11:29:56.084Z,999.84
2017-01-02T11:30:56.113Z,999.81
2017-01-02T11:31:56.135Z,999.81
2017-01-02T11:32:56.167Z,999.87
2017-01-02T11:33:56.191Z,999.81
2017-01-02T11:34:56.220Z,999.86
2017-01-02T11:35:56.248Z,999.83
2017-01-02T11:36:56.269Z,999.84
2017-01-02T11:37:56.299Z,999.79
2017-01-02T11:38:56.323Z,999.79
2017-01-02T11:39:56.351Z,999.77
2017-01-02T11:40:56.376Z,999.7
2017-01-02T11:41:56.405Z,999.68
2017-01-02T11:42:56.430Z,999.67
2017-01-02T11:43:56.457Z,999.68
2017-01-02T11:44:56.479Z,999.65
2017-01-02T11:45:56.512Z,999.68
2017-01-02T11:46:56.533Z,999.73
2017-01-02T11:47:56.561Z,999.72
2017-01-02T11:48:56.586Z,999.75
2017-01-02T11:49:56.610Z,999.75
2017-01-02T11:50:56.639Z,999.79
2017-01-02T11:51:56.664Z,999.83
2017-01-02T11:52:56.692Z,999.88
2017-01-02T11:53:56.718Z,999.87
2017-01-02T11:54:56.742Z,999.88
2017-01-02T11:55:56.771Z,999.86
2017-01-02T11:56:56.795Z,999.8
2017-01-02T11:57:56.820Z,999.8
2017-01-02T11:58:56.849Z,999.86
2017-01-02T11:59:56.873Z,999.84
2017-01-02T12:00:56.899Z,999.83
2017-01-02T12:01:56.923Z,999.88
2017-01-02T12:02:56.952Z,999.86
2017-01-02T12:03:56.981Z,999.85
2017-01-02T12:04:57.005Z,999.85
2017-01-02T12:05:57.038Z,999.82
2017-01-02T12:06:57.059Z,999.85
2017-01-02T12:07:57.084Z,999.88
2017-01-02T12:08:57.112Z,999.82
2017-01-02T12:09:57.137Z,999.77
2017-01-02T12:10:57.168Z,999.71
2017-01-02T12:11:57.182Z,999.7
2017-01-02T12:12:57.209Z,999.66
2017-01-02T12:13:57.239Z,999.66
2017-01-02T12:14:57.268Z,999.67
2017-01-02T12:15:57.291Z,999.67
2017-01-02T12:16:57.318Z,999.72
2017-01-02T12:17:57.339Z,999.77
2017-01-02T12:18:57.372Z,999.73
2017-01-02T12:19:57.392Z,999.71
2017-01-02T12:20:57.425Z,999.73
2017-01-02T12:21:57.448Z,999.78
2017-01-02T12:22:57.474Z,999.72
2017-01-02T12:23:57.501Z,999.77
2017-01-02T12:24:57.527Z,999.77
2017-01-02T12:25:57.557Z,999.76
2017-01-02T12:26:57.580Z,999.84
2017-01-02T12:27:57.606Z,999.81
2017-01-02T12:28:57.635Z,999.82
2017-01-02T12:29:57.658Z,999.87
2017-01-02T12:30:57.688Z,999.84
2017-01-02T12:31:57.711Z,999.83